Have a Safe July 4th! 

Flight Track Log - Related Links

Times and Time Zones

All times are in EDT time to prevent confusion due to time zone crossing. See the N449ND flight status page for this flight to view local times or setup timezone preferences in your user account.

Time Position Orientation Groundspeed Altitude Reporting Facility
EDT Latitude Longitude Course Direction KTS MPH feet Rate Location/Type
Thu 10:18:13 AM 27.9500 -82.7000 345° North 104 120 1,100  Level Tampa TRACON
Thu 10:19:19 AM 27.9833 -82.7167 336° Northwest 99 114 1,700 636 Climbing Tampa TRACON
Thu 10:20:25 AM 27.9833 -82.6833 90° East 64 74 2,500 632 Climbing Tampa TRACON
Thu 10:21:13 AM 27.9833 -82.6667 90° East 64 74 2,900 353 Climbing Tampa TRACON
Thu 10:22:07 AM 27.9833 -82.6500 90° East 80 92 3,100 95 Climbing Tampa TRACON
Thu 10:23:19 AM 27.9667 -82.6167 120° Southeast 103 119 3,100  Level Tampa TRACON
Thu 10:24:19 AM 27.9667 -82.5833 90° East 99 114 3,100 -48 Level Tampa TRACON
Thu 10:25:25 AM 27.9667 -82.5500 90° East 99 114 3,000 -53 Descending Tampa TRACON
Thu 10:26:13 AM 27.9667 -82.5333 90° East 94 108 3,000  Level Tampa TRACON
Thu 10:27:13 AM 27.9667 -82.5000 90° East 87 100 3,000  Level Tampa TRACON
Thu 10:28:13 AM 27.9667 -82.4667 90° East 84 97 3,000 200 Level Tampa TRACON
Thu 10:29:13 AM 27.9667 -82.4500 90° East 83 96 3,400 417 Climbing Tampa TRACON
Thu 10:30:08 AM 27.9667 -82.4333 90° East 95 109 3,800 347 Climbing Tampa TRACON
Thu 10:31:14 AM 28.0000 -82.4000 41° Northeast 107 123 4,100 143 Climbing Tampa TRACON
Thu 10:32:14 AM 28.0167 -82.3667 60° Northeast 115 132 4,100 -50 Level Tampa TRACON
Thu 10:33:14 AM 28.0333 -82.3500 41° Northeast 111 128 4,000 200 Descending Tampa TRACON
Thu 10:34:14 AM 28.0500 -82.3167 60° Northeast 100 115 4,500 526 Climbing Tampa TRACON
Thu 10:35:08 AM 28.0667 -82.3000 41° Northeast 94 108 5,000 316 Climbing Tampa TRACON
Thu 10:36:08 AM 28.0833 -82.2667 60° Northeast 106 122 5,100 48 Climbing Tampa TRACON
Thu 10:37:14 AM 28.1000 -82.2500 41° Northeast 116 133 5,100  Level Tampa TRACON
Thu 10:38:08 AM 28.1167 -82.2167 60° Northeast 111 128 5,100  Level Tampa TRACON
Thu 10:39:08 AM 28.1333 -82.1833 60° Northeast 112 129 5,100  Level Tampa TRACON
Thu 10:40:09 AM 28.1500 -82.1500 60° Northeast 117 135 5,100 -27 Level Tampa TRACON
Thu 10:42:50 AM 28.2000 -82.0667 56° Northeast 117 135 5,000 -28 Descending Orlando TRACON
Thu 10:43:44 AM 28.2167 -82.0500 41° Northeast 116 133 5,000  Level Orlando TRACON
Thu 10:44:44 AM 28.2333 -82.0167 60° Northeast 115 132 5,000  Level Orlando TRACON
Thu 10:45:44 AM 28.2667 -82.0000 24° Northeast 115 132 5,000 45 Level Orlando TRACON
Thu 10:46:57 AM 28.2833 -81.9500 69° East 116 133 5,100  Climbing Orlando TRACON
Thu 10:47:45 AM 28.3000 -81.9333 41° Northeast 113 130 5,000 -222 Descending Orlando TRACON
Thu 10:48:45 AM 28.3167 -81.9000 60° Northeast 110 127 4,700 -318 Descending Orlando TRACON
Thu 10:49:57 AM 28.3500 -81.8833 24° Northeast 112 129 4,300 -406 Descending Orlando TRACON
Thu 10:50:58 AM 28.3667 -81.8500 60° Northeast 111 128 3,800 -496 Descending Orlando TRACON
Thu 10:51:58 AM 28.3833 -81.8333 41° Northeast 101 116 3,300 -550 Descending Orlando TRACON
Thu 10:52:58 AM 28.4000 -81.8000 60° Northeast 100 115 2,700 -450 Descending Orlando TRACON
Thu 10:53:58 AM 28.4167 -81.7833 41° Northeast 98 113 2,400 -313 Descending Orlando TRACON
Thu 10:54:53 AM 28.4333 -81.7667 41° Northeast 96 110 2,100 -209 Descending Orlando TRACON
Thu 10:55:53 AM 28.4500 -81.7333 60° Northeast 97 112 2,000  Descending Orlando TRACON
Thu 10:56:53 AM 28.4667 -81.7167 41° Northeast 83 96 2,100  Climbing Orlando TRACON
Thu 10:57:53 AM 28.4833 -81.6833 60° Northeast 96 110 2,000 -52 Descending Orlando TRACON
Thu 10:58:48 AM 28.4833 -81.6667 90° East 92 106 2,000  Level Orlando TRACON
Thu 10:59:48 AM 28.4833 -81.6333 90° East 91 105 2,000  Level Orlando TRACON
Thu 11:00:54 AM 28.4833 -81.6000 90° East 93 107 2,000  Level Orlando TRACON
Thu 11:01:48 AM 28.4833 -81.5667 90° East 90 104 2,000  Level Orlando TRACON
Thu 11:02:48 AM 28.5000 -81.5500 41° Northeast 93 107 2,000  Level Orlando TRACON
Thu 11:03:54 AM 28.5000 -81.5167 90° East 91 105 2,000  Level Orlando TRACON
Thu 11:04:54 AM 28.5000 -81.4833 90° East 89 102 2,000  Level Orlando TRACON
Thu 11:05:49 AM 28.5000 -81.4667 90° East 96 110 2,000 -50 Level Orlando TRACON
Thu 11:06:55 AM 28.5167 -81.4333 60° Northeast 97 112 1,900 -238 Descending Orlando TRACON
Thu 11:07:55 AM 28.5167 -81.4000 90° East 92 106 1,500 -500 Descending Orlando TRACON
Thu 11:08:55 AM 28.5333 -81.3667 60° Northeast 94 108 900 -579 Descending Orlando TRACON
Thu 11:09:49 AM 28.5333 -81.3500 90° East 88 101 400 -556 Descending Orlando TRACON

Login

Don't have an account? Register now (free) for customized features, flight alerts, and more!